Ely, MN

5:36 AM CST on December 04, 2016 (GMT -0600)
Ely near the school | | Change Station

Elev 1473 ft 47.90 °N, 91.86 °W | Updated 1 minute ago

Light Snow
Light Snow
24.8 °F
Feels Like 25 °F
N
2.0
Wind Variable Wind from East

Today
High -- | Low -- °F
--% Chance of Precip.
Yesterday
High -- | Low -- °F
Precip. -- in
Pressure 29.98 in
Visibility 3.0 miles
Clouds Scattered Clouds 1900 ft
Scattered Clouds 2500 ft
Mostly Cloudy 3800 ft
Windchill 25 °F
Dew Point 24 °F
Humidity 98%
Rainfall 0.00 in
Snow Depth Not available.
7:40 AM 4:15 PM
Waxing Crescent, 22% visible
METAR KELO 041113Z AUTO 15005KT 3SM -SN SCT019 SCT025 BKN038 M03/M04 A2998 RMK AO2
Pressure 29.98 in
Visibility 3.0 miles
Clouds Scattered Clouds 1900 ft
Scattered Clouds 2500 ft
Mostly Cloudy 3800 ft
Windchill 25 °F
Dew Point 24 °F
Humidity 98%
Rainfall 0.00 in
Snow Depth Not available.
7:40 AM 4:15 PM
Waxing Crescent, 22% visible
METAR KELO 041113Z AUTO 15005KT 3SM -SN SCT019 SCT025 BKN038 M03/M04 A2998 RMK AO2

10-Day Weather Forecast

Almanac

Astronomy

Dec. 04, 2016 Rise Set
Actual Time
Civil Twilight
Nautical Twilight
Astronomical Twilight
Moon
Length of Visible Light
Length of Day
Tomorrow will be .
, % of the Moon is Illuminated

Today's Extremes

State Highs State Lows

Community

WunderPhotos

Upload Photos

1,955,593 photos uploaded!

WunderBlog® & News

Nearby

Air Quality

  Air Quality AQ Index Pollutant
Not available.

Snow Depth

Station Depth Elevation

Earthquake Activity

City Distance Mag. Time & Date
Minimum magnitude displayed is 2.5.

Coastal Water Temperatures

Place Temperature

Stations

Nearby Weather Stations

Station Location Temp. Windchill Dew Point Humidity Wind Precip. Elev Updated Type
                   

Watches & Warnings

There are currently no watches in effect.